Time;durP1;ratioP1;P1;durP2;ratioP2;P2;SDS_P1;SDS_P2;PMS_P1;PMS_P2;Temp;Humidity;BMP_temperature;BMP_pressure;BME280_temperature;BME280_humidity;BME280_pressure;Samples;Min_cycle;Max_cycle;Signal;HPM_P1;HPM_P2
2023/08/09 00:01:09;;;;;;;5.10;4.65;;;;;;;12.80;100.00;100995.31;5050469;28;20035;-82
2023/08/09 00:03:35;;;;;;;5.35;4.85;;;;;;;12.87;100.00;100998.84;5049745;28;20021;-82
2023/08/09 00:06:00;;;;;;;5.45;4.93;;;;;;;12.77;100.00;100994.91;5054017;28;20021;-82
2023/08/09 00:08:25;;;;;;;5.30;4.78;;;;;;;12.81;100.00;101005.06;5052505;28;20025;-82
2023/08/09 00:10:51;;;;;;;5.45;4.95;;;;;;;12.77;100.00;100997.59;5048841;28;20380;-82
2023/08/09 00:13:17;;;;;;;5.80;5.20;;;;;;;12.81;100.00;100996.97;5054256;28;20040;-82
2023/08/09 00:15:42;;;;;;;7.07;5.50;;;;;;;12.82;100.00;100997.78;5055148;28;20029;-82
2023/08/09 00:18:08;;;;;;;6.03;5.43;;;;;;;12.91;100.00;100999.25;5057095;28;20476;-82
2023/08/09 00:20:33;;;;;;;5.95;5.35;;;;;;;12.96;100.00;100995.91;5053978;28;20044;-82
2023/08/09 00:22:59;;;;;;;6.03;5.43;;;;;;;12.85;100.00;101003.63;5052820;28;20021;-82
2023/08/09 00:25:24;;;;;;;6.63;5.97;;;;;;;12.71;100.00;101010.03;5052846;28;20058;-82
2023/08/09 00:27:49;;;;;;;7.15;6.07;;;;;;;12.65;100.00;101011.72;5054227;28;20053;-82
2023/08/09 00:30:15;;;;;;;7.28;6.35;;;;;;;12.66;100.00;101016.06;5053047;28;20506;-82
2023/08/09 00:32:40;;;;;;;8.00;6.90;;;;;;;12.61;100.00;101020.44;5051272;28;20036;-82
2023/08/09 00:35:06;;;;;;;8.50;7.18;;;;;;;12.61;100.00;101020.44;5060586;28;20132;-82
2023/08/09 00:37:32;;;;;;;8.27;7.30;;;;;;;12.58;100.00;101021.69;5050288;28;20119;-82
2023/08/09 00:39:58;;;;;;;8.30;7.18;;;;;;;12.61;100.00;101023.13;5055726;28;20025;-82
2023/08/09 00:42:24;;;;;;;9.15;7.18;;;;;;;12.62;100.00;101017.53;5053188;28;20052;-82
2023/08/09 00:44:50;;;;;;;9.00;7.57;;;;;;;12.66;100.00;101024.19;5054121;28;20032;-82
2023/08/09 00:47:15;;;;;;;10.30;7.53;;;;;;;12.62;100.00;101019.41;5051264;28;20154;-82
2023/08/09 00:49:41;;;;;;;8.50;6.90;;;;;;;12.62;100.00;101016.69;5050866;28;20028;-81
2023/08/09 00:52:06;;;;;;;8.82;7.20;;;;;;;12.63;100.00;101021.88;5033686;28;20064;-81
2023/08/09 00:54:31;;;;;;;9.18;7.43;;;;;;;12.63;100.00;101023.78;5051769;28;20017;-81
2023/08/09 00:56:57;;;;;;;8.05;7.15;;;;;;;12.66;100.00;101029.59;5038672;28;20025;-81
2023/08/09 00:59:22;;;;;;;8.75;7.60;;;;;;;12.62;100.00;101020.22;5038347;28;20028;-81
2023/08/09 01:01:47;;;;;;;8.55;7.65;;;;;;;12.63;100.00;101029.16;5064363;28;20084;-81
2023/08/09 01:04:13;;;;;;;9.27;7.15;;;;;;;12.62;100.00;101022.09;5072504;28;20127;-81
2023/08/09 01:06:53;;;;;;;7.63;6.47;;;;;;;12.62;100.00;101019.41;5041968;28;20029;-81
2023/08/09 01:09:24;;;;;;;7.80;6.95;;;;;;;12.53;100.00;101016.88;5046201;28;20036;-81
2023/08/09 01:11:57;;;;;;;9.30;7.18;;;;;;;12.47;100.00;101015.03;5046315;28;20021;-81
2023/08/09 01:14:23;;;;;;;8.75;7.35;;;;;;;12.37;100.00;101011.88;5049983;28;20396;-81
2023/08/09 01:16:49;;;;;;;8.82;7.63;;;;;;;12.25;100.00;101014.38;5017779;28;20036;-81
2023/08/09 01:19:33;;;;;;;9.70;7.57;;;;;;;12.09;100.00;101020.97;5017255;28;20040;-81
2023/08/09 01:22:01;;;;;;;9.68;7.25;;;;;;;12.02;100.00;101028.19;5053267;28;20029;-81
2023/08/09 01:24:27;;;;;;;10.35;7.93;;;;;;;11.96;100.00;101030.66;5035799;28;20036;-82
2023/08/09 01:26:52;;;;;;;9.68;7.78;;;;;;;12.00;100.00;101016.78;5033670;28;20037;-81
2023/08/09 01:29:17;;;;;;;8.82;7.20;;;;;;;12.08;100.00;101017.44;5055957;28;20396;-81
2023/08/09 01:31:43;;;;;;;9.18;7.70;;;;;;;12.07;100.00;101023.03;5051883;28;20033;-82
2023/08/09 01:34:08;;;;;;;8.77;7.40;;;;;;;11.92;100.00;101029.38;5052412;28;20029;-81
2023/08/09 01:36:35;;;;;;;9.80;7.63;;;;;;;11.74;100.00;101026.41;5033585;28;20048;-81
2023/08/09 01:39:06;;;;;;;12.00;8.02;;;;;;;11.62;100.00;101036.91;5037308;28;20022;-81
2023/08/09 01:41:31;;;;;;;9.23;7.43;;;;;;;11.62;100.00;101029.69;5032985;28;20094;-81
2023/08/09 01:43:57;;;;;;;10.32;7.97;;;;;;;11.63;100.00;101035.88;5018604;28;20063;-82
2023/08/09 01:46:23;;;;;;;9.95;7.82;;;;;;;11.54;100.00;101024.44;5017136;28;20029;-81
2023/08/09 01:48:48;;;;;;;10.63;7.57;;;;;;;11.60;100.00;101030.88;5033147;28;20386;-82
2023/08/09 01:51:14;;;;;;;9.90;7.75;;;;;;;11.64;100.00;101033.00;5052206;28;20051;-82
2023/08/09 01:53:39;;;;;;;10.45;7.68;;;;;;;11.64;100.00;101034.84;5049333;28;20051;-81
2023/08/09 01:56:05;;;;;;;12.20;7.90;;;;;;;11.60;100.00;101034.44;5047418;28;20127;-82
2023/08/09 01:58:31;;;;;;;11.15;8.15;;;;;;;11.44;100.00;101040.16;5050824;28;20027;-82
2023/08/09 02:00:56;;;;;;;11.85;8.35;;;;;;;11.29;100.00;101049.19;5053668;28;20021;-81
2023/08/09 02:03:22;;;;;;;11.57;8.23;;;;;;;11.16;100.00;101054.44;5051230;28;20043;-82
2023/08/09 02:05:47;;;;;;;15.55;9.95;;;;;;;11.14;100.00;101054.66;5049571;28;20021;-82
2023/08/09 02:08:13;;;;;;;16.95;10.15;;;;;;;11.09;100.00;101058.97;5052449;28;20039;-82
2023/08/09 02:10:38;;;;;;;14.52;9.40;;;;;;;11.05;100.00;101053.97;5049434;28;20025;-82
2023/08/09 02:13:04;;;;;;;13.90;9.18;;;;;;;11.06;100.00;101052.09;5054385;28;20397;-82
2023/08/09 02:15:30;;;;;;;13.25;9.02;;;;;;;11.12;100.00;101063.97;5048920;28;20380;-81
2023/08/09 02:17:58;;;;;;;11.90;8.48;;;;;;;11.12;100.00;101064.78;5050620;28;20487;-80
2023/08/09 02:20:23;;;;;;;12.57;8.57;;;;;;;11.15;100.00;101066.25;5045752;28;20055;-83
2023/08/09 02:22:48;;;;;;;11.45;8.85;;;;;;;11.14;100.00;101065.44;5049548;28;20037;-82
2023/08/09 02:25:14;;;;;;;11.43;8.40;;;;;;;11.12;100.00;101063.97;5044887;28;20104;-84
2023/08/09 02:27:42;;;;;;;13.13;8.70;;;;;;;11.15;100.00;101061.72;5050414;28;20021;-85
2023/08/09 02:30:07;;;;;;;11.02;8.13;;;;;;;11.10;100.00;101063.34;5049437;28;20036;-85
2023/08/09 02:32:36;;;;;;;11.35;8.55;;;;;;;11.06;100.00;101068.25;5052315;28;20356;-85
2023/08/09 02:35:02;;;;;;;10.23;8.35;;;;;;;11.04;100.00;101059.53;5050432;28;20067;-86
2023/08/09 02:37:27;;;;;;;13.02;8.52;;;;;;;11.00;100.00;101067.19;5049857;28;20020;-85
2023/08/09 02:39:53;;;;;;;14.20;8.95;;;;;;;10.98;100.00;101069.22;5039496;28;20021;-83
2023/08/09 02:42:18;;;;;;;13.93;9.48;;;;;;;10.98;100.00;101080.00;5049054;28;20032;-87
2023/08/09 02:44:44;;;;;;;12.40;8.77;;;;;;;11.03;100.00;101074.06;5049920;28;20029;-87
2023/08/09 02:47:10;;;;;;;30.95;9.75;;;;;;;11.03;100.00;101085.66;5050125;28;20037;-87
2023/08/09 02:49:35;;;;;;;11.60;8.05;;;;;;;11.09;100.00;101083.22;5057106;28;20090;-87
2023/08/09 02:52:00;;;;;;;11.52;8.52;;;;;;;11.07;100.00;101080.69;5050762;28;20029;-87
2023/08/09 02:54:26;;;;;;;23.38;8.65;;;;;;;11.03;100.00;101087.53;5050184;28;20021;-86
2023/08/09 02:56:51;;;;;;;38.88;8.50;;;;;;;10.98;100.00;101084.56;5053534;28;20025;-87
2023/08/09 02:59:17;;;;;;;19.58;8.68;;;;;;;10.96;100.00;101090.16;5051576;28;20025;-87
2023/08/09 03:01:44;;;;;;;19.00;9.07;;;;;;;10.94;100.00;101092.22;5059365;28;20369;-87
2023/08/09 03:04:09;;;;;;;17.33;8.65;;;;;;;10.91;100.00;101098.81;5052692;28;20112;-87
2023/08/09 03:06:35;;;;;;;14.00;8.20;;;;;;;10.92;100.00;101096.97;5050151;28;20024;-87
2023/08/09 03:09:01;;;;;;;19.13;9.07;;;;;;;10.95;100.00;101096.56;5050185;28;20029;-88
2023/08/09 03:11:27;;;;;;;20.95;9.05;;;;;;;11.01;100.00;101098.47;5055830;28;20029;-87
2023/08/09 03:13:52;;;;;;;14.68;9.38;;;;;;;11.04;100.00;101103.50;5051077;28;20021;-87
2023/08/09 03:16:18;;;;;;;17.10;9.57;;;;;;;11.14;100.00;101108.56;5052285;28;20392;-87
2023/08/09 03:18:43;;;;;;;16.60;9.63;;;;;;;11.17;100.00;101101.94;5052721;28;20029;-87
2023/08/09 03:21:09;;;;;;;33.08;10.98;;;;;;;11.14;100.00;101107.69;5050350;28;20386;-87
2023/08/09 03:23:35;;;;;;;32.83;11.90;;;;;;;11.11;100.00;101114.31;5046361;28;20028;-87
2023/08/09 03:26:00;;;;;;;66.70;12.95;;;;;;;11.09;100.00;101110.97;5052004;28;20025;-88
2023/08/09 03:28:28;;;;;;;57.40;12.68;;;;;;;11.16;100.00;101119.13;5051577;28;20028;-87
2023/08/09 03:30:54;;;;;;;18.83;11.30;;;;;;;11.14;100.00;101118.47;5044692;28;20043;-87
2023/08/09 03:33:19;;;;;;;27.35;10.80;;;;;;;11.22;100.00;101116.47;5057531;28;20032;-87
2023/08/09 03:35:44;;;;;;;20.85;11.48;;;;;;;11.22;100.00;101123.75;5051526;28;20507;-87
2023/08/09 03:38:10;;;;;;;34.88;10.88;;;;;;;11.20;100.00;101123.09;5055340;28;20025;-87
2023/08/09 03:40:36;;;;;;;16.92;10.70;;;;;;;11.17;100.00;101134.25;5051658;28;20056;-87
2023/08/09 03:43:01;;;;;;;42.45;11.70;;;;;;;11.11;100.00;101129.66;5054050;28;20059;-86
2023/08/09 03:45:26;;;;;;;33.25;11.50;;;;;;;11.12;100.00;101140.25;5064365;28;20029;-87
2023/08/09 03:47:52;;;;;;;30.42;12.00;;;;;;;11.16;100.00;101143.38;5064929;28;20031;-87
2023/08/09 03:50:18;;;;;;;26.38;11.98;;;;;;;11.21;100.00;101140.94;5071922;28;20108;-86
2023/08/09 03:52:43;;;;;;;22.20;11.25;;;;;;;11.25;100.00;101141.38;5055321;28;20033;-87
2023/08/09 03:55:08;;;;;;;53.70;12.40;;;;;;;11.28;100.00;101158.00;5060567;28;20021;-87
2023/08/09 03:57:34;;;;;;;31.13;12.00;;;;;;;11.28;100.00;101152.63;5061165;28;20491;-87
2023/08/09 03:59:59;;;;;;;29.20;11.43;;;;;;;11.23;100.00;101149.66;5064643;28;20078;-86
2023/08/09 04:02:25;;;;;;;20.85;11.77;;;;;;;11.20;100.00;101163.53;5065348;28;20025;-87
2023/08/09 04:04:50;;;;;;;26.88;12.10;;;;;;;11.22;100.00;101169.56;5058803;28;20029;-87
2023/08/09 04:07:15;;;;;;;20.88;11.20;;;;;;;11.25;100.00;101168.31;5054544;28;20037;-87
2023/08/09 04:09:41;;;;;;;27.95;11.35;;;;;;;11.21;100.00;101167.88;5055936;28;20021;-81
2023/08/09 04:12:06;;;;;;;28.60;11.80;;;;;;;11.21;100.00;101174.09;5068829;28;20034;-89
2023/08/09 04:14:32;;;;;;;23.95;11.95;;;;;;;11.26;100.00;101178.06;5072094;28;20460;-78
2023/08/09 04:16:57;;;;;;;37.45;12.13;;;;;;;11.31;100.00;101170.25;5081687;28;20013;-89
2023/08/09 04:19:24;;;;;;;27.55;13.20;;;;;;;11.30;100.00;101179.38;5073740;28;20080;-88
2023/08/09 04:21:50;;;;;;;40.70;12.85;;;;;;;11.29;100.00;101180.38;5065457;28;20096;-80
2023/08/09 04:24:16;;;;;;;26.58;11.90;;;;;;;11.32;100.00;101175.44;5065460;28;20031;-81
2023/08/09 04:26:42;;;;;;;20.80;11.05;;;;;;;11.39;100.00;101178.19;5062121;28;20382;-86
2023/08/09 04:29:07;;;;;;;20.17;11.65;;;;;;;11.45;100.00;101184.69;5066936;28;20099;-85
2023/08/09 04:31:33;;;;;;;21.55;11.45;;;;;;;11.44;100.00;101183.84;5086735;28;20028;-83
2023/08/09 04:33:59;;;;;;;32.38;12.50;;;;;;;11.47;100.00;101185.34;5059141;28;20025;-86
2023/08/09 04:36:25;;;;;;;22.48;12.05;;;;;;;11.59;100.00;101191.84;5056059;28;20033;-86
2023/08/09 04:38:50;;;;;;;24.77;12.05;;;;;;;11.60;100.00;101193.53;5051697;28;20048;-87
2023/08/09 04:41:15;;;;;;;20.83;11.85;;;;;;;11.61;100.00;101194.34;5054542;28;20501;-88
2023/08/09 04:43:43;;;;;;;35.03;12.50;;;;;;;11.56;100.00;101197.63;5054266;28;20036;-87
2023/08/09 04:46:10;;;;;;;21.90;12.25;;;;;;;11.57;100.00;101196.59;5055659;28;20029;-88
2023/08/09 04:48:36;;;;;;;26.40;13.10;;;;;;;11.59;100.00;101197.25;5037571;28;20029;-88
2023/08/09 04:51:02;;;;;;;32.22;12.52;;;;;;;11.56;100.00;101196.81;5055715;28;20025;-87
2023/08/09 04:53:28;;;;;;;25.77;12.82;;;;;;;11.64;100.00;101200.19;5054759;28;20024;-88
2023/08/09 04:55:53;;;;;;;21.92;13.00;;;;;;;11.68;100.00;101206.03;5056334;28;20523;-88
2023/08/09 04:58:19;;;;;;;22.58;13.00;;;;;;;11.71;100.00;101212.88;5021947;28;20067;-88
2023/08/09 05:00:44;;;;;;;22.02;12.65;;;;;;;11.71;100.00;101210.19;5062104;28;20036;-88
2023/08/09 05:03:09;;;;;;;19.17;11.50;;;;;;;11.86;100.00;101220.88;5058466;28;20119;-87
2023/08/09 05:05:35;;;;;;;19.02;12.40;;;;;;;11.81;100.00;101226.88;5056948;28;20017;-87
2023/08/09 05:08:01;;;;;;;19.95;11.82;;;;;;;11.85;100.00;101228.13;5054217;28;20017;-87
2023/08/09 05:10:26;;;;;;;20.80;11.95;;;;;;;11.90;100.00;101230.25;5056572;28;20029;-87
2023/08/09 05:12:52;;;;;;;20.33;12.68;;;;;;;11.95;100.00;101220.53;5054131;28;20484;-88
2023/08/09 05:15:17;;;;;;;19.38;12.05;;;;;;;12.01;100.00;101231.59;5054100;28;20033;-88
2023/08/09 05:17:42;;;;;;;19.80;12.65;;;;;;;12.05;100.00;101231.03;5054564;28;20032;-88
2023/08/09 05:20:10;;;;;;;20.50;12.20;;;;;;;12.11;100.00;101234.78;5053605;28;20033;-87
2023/08/09 05:22:35;;;;;;;22.30;12.27;;;;;;;12.16;100.00;101245.84;5054220;28;20040;-88
2023/08/09 05:25:00;;;;;;;21.65;13.23;;;;;;;12.22;100.00;101234.22;5053599;28;20024;-88
2023/08/09 05:27:26;;;;;;;20.73;13.38;;;;;;;12.44;100.00;101231.44;5051361;28;20085;-88
2023/08/09 05:29:52;;;;;;;20.70;12.57;;;;;;;12.32;100.00;101227.66;5052690;28;20087;-89
2023/08/09 05:32:17;;;;;;;20.83;12.88;;;;;;;12.26;100.00;101232.81;5053382;28;20021;-88
2023/08/09 05:34:42;;;;;;;17.60;11.85;;;;;;;12.43;100.00;101232.47;5049489;28;20032;-88
2023/08/09 05:37:08;;;;;;;17.90;12.60;;;;;;;12.45;100.00;101241.22;5052448;28;20044;-88
2023/08/09 05:39:33;;;;;;;16.20;11.52;;;;;;;12.66;100.00;101244.84;5052832;28;20017;-88
2023/08/09 05:41:59;;;;;;;16.55;11.60;;;;;;;12.61;100.00;101244.59;5051275;28;20579;-89
2023/08/09 05:44:25;;;;;;;17.85;11.77;;;;;;;12.62;100.00;101243.56;5052114;28;20031;-88
2023/08/09 05:46:50;;;;;;;15.35;11.18;;;;;;;12.68;100.00;101249.00;5052859;28;20025;-89
2023/08/09 05:49:16;;;;;;;17.00;12.05;;;;;;;12.80;100.00;101251.97;5051815;28;20029;-88
2023/08/09 05:51:41;;;;;;;16.35;12.13;;;;;;;12.61;100.00;101252.72;5052853;28;20028;-88
2023/08/09 05:54:07;;;;;;;15.60;11.40;;;;;;;12.67;100.00;101262.72;5051367;28;20029;-88
2023/08/09 05:56:32;;;;;;;20.60;12.15;;;;;;;12.71;100.00;101264.81;5052533;28;20608;-89
2023/08/09 05:58:57;;;;;;;16.25;12.02;;;;;;;12.84;100.00;101264.03;5052462;28;20043;-89
2023/08/09 06:01:23;;;;;;;17.58;12.27;;;;;;;12.88;100.00;101276.09;5052702;28;20029;-89
2023/08/09 06:03:49;;;;;;;16.40;10.95;;;;;;;13.15;100.00;101275.34;5052470;28;20090;-88
2023/08/09 06:06:15;;;;;;;18.08;11.63;;;;;;;13.23;100.00;101279.75;5052379;28;20033;-89
2023/08/09 06:08:40;;;;;;;15.75;10.70;;;;;;;13.35;100.00;101275.41;5050855;28;20025;-88
2023/08/09 06:11:06;;;;;;;14.70;11.30;;;;;;;13.42;100.00;101288.97;5052567;28;20036;-88
2023/08/09 06:13:32;;;;;;;16.10;12.38;;;;;;;13.19;100.00;101282.88;5052453;28;20025;-88
2023/08/09 06:15:57;;;;;;;16.63;12.35;;;;;;;13.09;100.00;101287.81;5052044;28;20047;-89
2023/08/09 06:18:23;;;;;;;18.08;12.85;;;;;;;13.18;100.00;101283.06;5052259;28;20094;-88
2023/08/09 06:20:48;;;;;;;15.40;11.18;;;;;;;13.59;100.00;101289.44;5050391;28;20446;-88
2023/08/09 06:23:14;;;;;;;14.57;10.38;;;;;;;13.76;100.00;101298.81;5052770;28;20033;-88
2023/08/09 06:25:40;;;;;;;14.85;10.65;;;;;;;13.71;100.00;101298.59;5051245;28;20524;-88
2023/08/09 06:28:06;;;;;;;14.43;10.95;;;;;;;13.76;100.00;101304.22;5052635;28;20035;-88
2023/08/09 06:30:31;;;;;;;14.32;10.73;;;;;;;13.89;100.00;101306.06;5051760;28;20025;-88
2023/08/09 06:32:56;;;;;;;16.13;10.90;;;;;;;13.86;100.00;101302.97;5052728;28;20100;-88
2023/08/09 06:35:22;;;;;;;14.57;10.85;;;;;;;13.91;100.00;101308.59;5052055;28;20029;-88
2023/08/09 06:37:48;;;;;;;14.73;10.13;;;;;;;14.13;100.00;101302.94;5050991;28;20067;-89
2023/08/09 06:40:16;;;;;;;12.82;9.77;;;;;;;14.27;100.00;101307.31;5051817;28;20063;-89
2023/08/09 06:42:41;;;;;;;14.77;10.00;;;;;;;14.40;100.00;101312.72;5051639;28;20024;-88
2023/08/09 06:45:07;;;;;;;12.75;9.63;;;;;;;14.34;97.79;101315.44;5050670;28;20028;-88
2023/08/09 06:47:33;;;;;;;16.15;10.38;;;;;;;14.12;100.00;101318.38;5052017;28;20024;-88
2023/08/09 06:50:00;;;;;;;13.25;9.95;;;;;;;14.30;100.00;101325.84;5051493;28;20029;-88
2023/08/09 06:52:26;;;;;;;12.40;9.75;;;;;;;14.37;100.00;101323.97;5050490;28;20029;-89
2023/08/09 06:54:52;;;;;;;15.18;10.27;;;;;;;14.50;100.00;101335.81;5051816;28;20049;-88
2023/08/09 06:57:17;;;;;;;13.10;9.10;;;;;;;15.04;97.73;101330.25;5050531;28;20493;-88
2023/08/09 06:59:42;;;;;;;15.40;9.63;;;;;;;15.02;94.73;101335.91;5051333;28;20033;-88
2023/08/09 07:02:09;;;;;;;11.05;9.13;;;;;;;15.35;92.79;101353.09;5051877;28;20025;-89
2023/08/09 07:04:35;;;;;;;12.95;9.82;;;;;;;15.22;96.87;101349.38;5052242;28;20036;-88
2023/08/09 07:07:00;;;;;;;12.60;9.65;;;;;;;15.66;93.30;101354.97;5050522;28;20392;-88
2023/08/09 07:09:26;;;;;;;10.38;8.90;;;;;;;16.62;90.40;101356.72;5052472;28;20037;-89
2023/08/09 07:11:52;;;;;;;10.48;8.23;;;;;;;17.26;84.54;101356.44;5042602;28;20111;-89
2023/08/09 07:14:17;;;;;;;12.93;8.63;;;;;;;17.05;84.28;101366.75;5050963;28;20052;-89
2023/08/09 07:16:42;;;;;;;12.57;8.38;;;;;;;16.94;82.97;101365.56;5053050;28;20025;-89
2023/08/09 07:19:08;;;;;;;13.48;9.65;;;;;;;15.91;88.10;101368.63;5051365;28;20434;-89
2023/08/09 07:21:33;;;;;;;11.52;8.82;;;;;;;15.80;89.22;101368.44;5052230;28;20025;-89
2023/08/09 07:23:59;;;;;;;12.55;9.27;;;;;;;16.29;86.76;101371.47;5052734;28;20102;-90
2023/08/09 07:26:26;;;;;;;12.95;9.05;;;;;;;18.12;81.59;101369.03;5052651;28;20033;-88
2023/08/09 07:28:52;;;;;;;8.00;7.18;;;;;;;19.72;72.98;101366.97;5054246;28;20108;-88
2023/08/09 07:31:21;;;;;;;10.20;8.77;;;;;;;20.25;72.21;101369.50;5056502;28;20029;-88
2023/08/09 07:33:47;;;;;;;8.00;6.45;;;;;;;19.98;66.32;101371.00;5055800;28;20056;-88
2023/08/09 07:36:13;;;;;;;11.05;7.43;;;;;;;19.46;70.55;101377.41;5061917;28;20033;-89
2023/08/09 07:38:38;;;;;;;12.15;8.57;;;;;;;18.76;74.69;101376.50;5073835;28;20021;-88
2023/08/09 07:41:04;;;;;;;9.20;7.57;;;;;;;19.20;71.03;101374.19;5073570;28;20031;-89
2023/08/09 07:43:29;;;;;;;11.10;7.63;;;;;;;20.22;70.17;101380.94;5073786;28;20062;-89
2023/08/09 07:45:55;;;;;;;7.97;6.88;;;;;;;22.51;59.43;101375.84;5068663;28;20025;-89
2023/08/09 07:48:21;;;;;;;6.88;5.68;;;;;;;24.46;50.61;101389.53;5053829;28;20033;-88
2023/08/09 07:50:46;;;;;;;6.05;5.43;;;;;;;25.33;48.48;101391.16;5057288;28;20120;-89
2023/08/09 07:53:12;;;;;;;7.57;5.90;;;;;;;24.98;49.78;101393.81;5059232;28;20429;-88
2023/08/09 07:55:39;;;;;;;7.05;6.35;;;;;;;22.20;56.19;101388.50;5057884;28;20473;-88
2023/08/09 07:58:04;;;;;;;8.93;6.15;;;;;;;20.89;61.11;101388.22;5057552;28;20040;-89
2023/08/09 08:00:30;;;;;;;9.73;7.10;;;;;;;20.47;62.14;101387.88;5054429;28;20037;-89
2023/08/09 08:02:55;;;;;;;9.38;7.35;;;;;;;20.83;61.88;101393.88;5054751;28;20508;-88
2023/08/09 08:05:21;;;;;;;10.00;8.38;;;;;;;19.27;70.02;101389.56;5054747;28;20037;-88
2023/08/09 08:07:46;;;;;;;9.32;8.23;;;;;;;19.12;69.47;101393.66;5054162;28;20443;-88
2023/08/09 08:10:14;;;;;;;9.27;7.85;;;;;;;18.90;69.63;101396.97;5046970;28;20421;-88
2023/08/09 08:12:40;;;;;;;9.40;7.20;;;;;;;19.34;67.68;101401.19;5054801;28;20163;-88
2023/08/09 08:15:07;;;;;;;7.93;6.30;;;;;;;20.88;62.13;101396.69;5054740;28;20618;-88
2023/08/09 08:17:33;;;;;;;7.60;6.20;;;;;;;22.48;56.18;101392.84;5054356;28;20591;-89
2023/08/09 08:19:59;;;;;;;7.00;5.88;;;;;;;24.44;49.71;101405.50;5053341;28;20032;-88
2023/08/09 08:22:24;;;;;;;8.02;6.32;;;;;;;24.44;50.26;101402.75;5053893;28;20028;-89
2023/08/09 08:24:49;;;;;;;8.90;5.70;;;;;;;26.20;44.88;101390.88;5053870;28;20183;-89
2023/08/09 08:27:15;;;;;;;7.68;5.60;;;;;;;25.74;46.61;101395.66;5053777;28;20032;-88
2023/08/09 08:29:40;;;;;;;6.65;5.43;;;;;;;24.88;47.27;101393.03;5053306;28;20472;-89
2023/08/09 08:32:06;;;;;;;7.65;6.85;;;;;;;24.16;50.60;101396.72;5054316;28;20021;-89
2023/08/09 08:34:31;;;;;;;7.20;6.25;;;;;;;25.63;45.23;101391.28;5053396;28;20024;-89
2023/08/09 08:37:00;;;;;;;8.40;5.60;;;;;;;24.94;47.61;101403.75;5053008;28;20021;-89
2023/08/09 08:39:25;;;;;;;7.00;5.65;;;;;;;24.97;46.29;101403.19;5054040;28;20469;-89
2023/08/09 08:41:51;;;;;;;5.90;5.28;;;;;;;25.50;45.96;101410.13;5053247;28;20103;-89
2023/08/09 08:44:17;;;;;;;4.70;4.30;;;;;;;26.45;42.30;101407.22;5027166;28;20036;-88
2023/08/09 08:46:42;;;;;;;9.70;4.25;;;;;;;26.97;42.07;101411.34;5053586;28;20033;-88
2023/08/09 08:49:12;;;;;;;8.15;5.00;;;;;;;26.90;41.32;101425.53;5053562;28;20021;-87
2023/08/09 08:51:37;;;;;;;4.95;4.40;;;;;;;26.25;42.95;101430.28;5035354;28;20031;-89
2023/08/09 08:54:03;;;;;;;5.97;4.82;;;;;;;26.45;41.02;101426.53;5035931;28;20025;-88
2023/08/09 08:56:29;;;;;;;5.57;4.55;;;;;;;25.40;44.84;101423.94;5033691;28;20421;-87
2023/08/09 08:58:55;;;;;;;10.80;5.20;;;;;;;26.72;40.63;101433.41;5051780;28;20469;-86
2023/08/09 09:01:20;;;;;;;5.20;4.25;;;;;;;26.15;43.00;101444.19;5036296;28;20079;-86
2023/08/09 09:03:45;;;;;;;7.00;5.45;;;;;;;26.12;43.22;101436.47;5014760;28;20029;-87
2023/08/09 09:06:11;;;;;;;6.68;5.82;;;;;;;24.66;45.46;101429.94;5049618;28;20058;-87
2023/08/09 09:08:41;;;;;;;9.07;5.65;;;;;;;25.87;42.34;101436.34;5054113;28;20358;-87
2023/08/09 09:11:14;;;;;;;7.50;5.10;;;;;;;26.27;40.88;101443.81;5051614;28;20053;-86
2023/08/09 09:13:39;;;;;;;6.15;4.65;;;;;;;27.01;40.08;101435.31;5052966;28;20018;-86
2023/08/09 09:16:05;;;;;;;6.50;5.70;;;;;;;26.91;39.86;101443.75;5053848;28;20028;-86
2023/08/09 09:18:30;;;;;;;7.13;5.32;;;;;;;26.08;42.36;101438.13;5034989;28;20029;-86
2023/08/09 09:20:56;;;;;;;6.75;5.82;;;;;;;25.36;42.65;101437.44;5053431;28;20021;-86
2023/08/09 09:23:25;;;;;;;7.55;5.68;;;;;;;24.00;46.25;101440.72;5053534;28;20039;-85
2023/08/09 09:26:10;;;;;;;7.32;5.85;;;;;;;21.80;51.76;101437.22;5050378;28;20033;-84
2023/08/09 09:28:42;;;;;;;6.43;5.78;;;;;;;21.71;54.87;101442.34;5052386;28;20025;-83
2023/08/09 09:31:12;;;;;;;8.15;6.47;;;;;;;23.92;47.96;101438.47;5053002;28;20480;-83
2023/08/09 09:33:39;;;;;;;7.03;6.00;;;;;;;23.05;51.39;101441.75;5051669;28;20025;-83
2023/08/09 09:36:04;;;;;;;8.95;6.00;;;;;;;22.67;53.25;101441.81;5044331;28;20032;-83
2023/08/09 09:38:30;;;;;;;5.13;4.72;;;;;;;24.67;44.94;101448.97;5034870;28;20499;-83
2023/08/09 09:40:57;;;;;;;7.72;5.68;;;;;;;25.43;42.65;101450.94;5050680;28;20456;-82
2023/08/09 09:43:23;;;;;;;6.40;4.80;;;;;;;25.94;42.42;101451.78;5015019;28;20025;-84
2023/08/09 09:45:48;;;;;;;5.93;4.97;;;;;;;24.36;43.98;101459.97;5057394;28;20384;-82
2023/08/09 09:48:17;;;;;;;5.68;4.47;;;;;;;23.79;47.01;101450.00;5015873;28;20035;-82
2023/08/09 09:50:45;;;;;;;6.63;5.88;;;;;;;23.68;51.47;101458.22;5051293;28;20029;-84
2023/08/09 09:53:13;;;;;;;5.80;4.93;;;;;;;23.37;49.44;101446.34;5052136;28;20033;-82
2023/08/09 09:55:38;;;;;;;6.65;5.90;;;;;;;24.36;47.39;101454.47;5051658;28;20021;-84
2023/08/09 09:58:04;;;;;;;5.32;4.38;;;;;;;25.14;43.37;101446.09;5013634;28;20354;-84
2023/08/09 10:00:31;;;;;;;6.90;4.15;;;;;;;25.35;43.41;101446.00;5051957;28;20031;-83
2023/08/09 10:03:02;;;;;;;5.90;4.70;;;;;;;24.38;44.80;101446.75;5051196;28;20025;-81
2023/08/09 10:05:36;;;;;;;6.53;4.50;;;;;;;24.11;45.65;101451.72;5017597;28;20029;-83
2023/08/09 10:08:08;;;;;;;5.82;4.25;;;;;;;24.04;46.40;101455.56;5034177;28;20078;-82
2023/08/09 10:10:35;;;;;;;6.88;5.25;;;;;;;24.79;44.98;101454.19;5050783;28;20095;-83
2023/08/09 10:13:01;;;;;;;7.65;5.93;;;;;;;24.88;45.21;101454.44;5050572;28;20021;-82
2023/08/09 10:15:32;;;;;;;7.70;5.18;;;;;;;24.75;46.09;101455.00;5051659;28;20091;-82
2023/08/09 10:18:01;;;;;;;5.10;4.60;;;;;;;24.62;47.22;101446.19;5033368;28;20025;-82
2023/08/09 10:20:27;;;;;;;5.13;4.40;;;;;;;24.92;47.37;101450.00;5033292;28;20032;-81
2023/08/09 10:22:55;;;;;;;4.57;3.60;;;;;;;24.80;45.21;101450.31;5052008;28;20366;-83
2023/08/09 10:25:41;;;;;;;4.68;2.90;;;;;;;25.17;45.09;101450.19;5051049;28;20104;-81
2023/08/09 10:28:06;;;;;;;3.00;2.42;;;;;;;24.66;45.28;101443.72;5051532;28;20480;-81
2023/08/09 10:30:31;;;;;;;3.05;2.17;;;;;;;23.27;46.68;101436.13;5051336;28;20384;-81
2023/08/09 10:32:57;;;;;;;5.80;2.38;;;;;;;24.16;43.37;101449.81;5015584;28;20037;-81
2023/08/09 10:35:45;;;;;;;3.80;2.40;;;;;;;23.24;46.69;101448.47;5050608;28;20075;-81
2023/08/09 10:38:21;;;;;;;4.18;2.60;;;;;;;23.14;49.07;101446.47;5053164;28;20021;-81
2023/08/09 10:40:52;;;;;;;3.92;2.25;;;;;;;22.59;46.76;101445.06;5051025;28;20114;-81
2023/08/09 10:43:20;;;;;;;4.05;2.42;;;;;;;23.55;45.71;101445.00;5054241;28;20057;-81
2023/08/09 10:45:46;;;;;;;4.20;2.53;;;;;;;22.25;49.16;101454.38;5053899;28;20483;-81
2023/08/09 10:48:21;;;;;;;4.85;2.60;;;;;;;23.27;47.09;101441.63;5050648;28;20029;-81
2023/08/09 10:50:47;;;;;;;4.13;2.67;;;;;;;23.13;47.53;101436.56;5050517;28;20036;-81
2023/08/09 10:53:19;;;;;;;4.10;2.05;;;;;;;23.02;45.78;101443.13;5039120;28;20021;-81
2023/08/09 10:55:45;;;;;;;3.58;2.30;;;;;;;23.30;45.47;101446.56;5056538;28;20641;-80
2023/08/09 10:58:10;;;;;;;5.25;2.55;;;;;;;23.17;46.82;101445.13;5060385;28;20033;-80
2023/08/09 11:00:38;;;;;;;4.18;2.55;;;;;;;23.37;48.01;101452.63;5016748;28;20029;-81
2023/08/09 11:03:04;;;;;;;2.72;2.50;;;;;;;23.64;46.81;101442.56;5048725;28;20296;-81
2023/08/09 11:05:29;;;;;;;3.58;2.67;;;;;;;23.56;46.91;101436.47;5050021;28;20416;-80
2023/08/09 11:07:56;;;;;;;3.03;2.72;;;;;;;23.46;47.69;101439.19;5051612;28;20025;-81
2023/08/09 11:10:40;;;;;;;4.22;3.00;;;;;;;23.37;47.92;101441.66;5049791;28;20029;-80